sensor_id;sensor_type;location;lat;lon;timestamp;P1;durP1;ratioP1;P2;durP2;ratioP2
47021;SDS011;32779;52.264;6.154;2022-11-15T00:02:07;29.27;;;19.60;;
47021;SDS011;32779;52.264;6.154;2022-11-15T00:04:33;35.58;;;20.92;;
47021;SDS011;32779;52.264;6.154;2022-11-15T00:06:59;31.70;;;19.20;;
47021;SDS011;32779;52.264;6.154;2022-11-15T00:09:24;30.35;;;19.55;;
47021;SDS011;32779;52.264;6.154;2022-11-15T00:11:50;34.15;;;19.65;;
47021;SDS011;32779;52.264;6.154;2022-11-15T00:14:16;35.92;;;20.05;;
47021;SDS011;32779;52.264;6.154;2022-11-15T00:16:42;33.33;;;20.75;;
47021;SDS011;32779;52.264;6.154;2022-11-15T00:19:08;34.33;;;20.83;;
47021;SDS011;32779;52.264;6.154;2022-11-15T00:21:34;30.80;;;20.08;;
47021;SDS011;32779;52.264;6.154;2022-11-15T00:24:00;34.03;;;19.95;;
47021;SDS011;32779;52.264;6.154;2022-11-15T00:26:25;35.85;;;20.95;;
47021;SDS011;32779;52.264;6.154;2022-11-15T00:28:54;34.92;;;20.48;;
47021;SDS011;32779;52.264;6.154;2022-11-15T00:31:19;38.60;;;20.83;;
47021;SDS011;32779;52.264;6.154;2022-11-15T00:33:45;36.97;;;20.88;;
47021;SDS011;32779;52.264;6.154;2022-11-15T00:36:11;38.63;;;20.80;;
47021;SDS011;32779;52.264;6.154;2022-11-15T00:38:37;35.03;;;20.70;;
47021;SDS011;32779;52.264;6.154;2022-11-15T00:41:05;34.15;;;19.95;;
47021;SDS011;32779;52.264;6.154;2022-11-15T00:43:31;36.03;;;20.13;;
47021;SDS011;32779;52.264;6.154;2022-11-15T00:45:57;37.38;;;21.83;;
47021;SDS011;32779;52.264;6.154;2022-11-15T00:48:23;41.42;;;20.83;;
47021;SDS011;32779;52.264;6.154;2022-11-15T00:50:49;38.92;;;20.67;;
47021;SDS011;32779;52.264;6.154;2022-11-15T00:53:15;41.35;;;21.98;;
47021;SDS011;32779;52.264;6.154;2022-11-15T00:55:42;36.67;;;20.88;;
47021;SDS011;32779;52.264;6.154;2022-11-15T00:58:07;34.45;;;21.38;;
47021;SDS011;32779;52.264;6.154;2022-11-15T01:00:33;40.78;;;21.77;;
47021;SDS011;32779;52.264;6.154;2022-11-15T01:03:00;45.47;;;21.95;;
47021;SDS011;32779;52.264;6.154;2022-11-15T01:05:26;42.45;;;23.25;;
47021;SDS011;32779;52.264;6.154;2022-11-15T01:07:53;49.38;;;24.42;;
47021;SDS011;32779;52.264;6.154;2022-11-15T01:10:19;42.13;;;22.83;;
47021;SDS011;32779;52.264;6.154;2022-11-15T01:12:45;41.47;;;22.08;;
47021;SDS011;32779;52.264;6.154;2022-11-15T01:15:11;49.97;;;23.42;;
47021;SDS011;32779;52.264;6.154;2022-11-15T01:17:36;50.85;;;23.85;;
47021;SDS011;32779;52.264;6.154;2022-11-15T01:20:02;49.63;;;24.45;;
47021;SDS011;32779;52.264;6.154;2022-11-15T01:22:28;45.00;;;24.95;;
47021;SDS011;32779;52.264;6.154;2022-11-15T01:24:53;52.42;;;25.00;;
47021;SDS011;32779;52.264;6.154;2022-11-15T01:27:19;58.25;;;27.10;;
47021;SDS011;32779;52.264;6.154;2022-11-15T01:29:44;49.63;;;25.08;;
47021;SDS011;32779;52.264;6.154;2022-11-15T01:32:10;50.97;;;24.52;;
47021;SDS011;32779;52.264;6.154;2022-11-15T01:34:36;46.00;;;24.58;;
47021;SDS011;32779;52.264;6.154;2022-11-15T01:37:01;51.20;;;25.67;;
47021;SDS011;32779;52.264;6.154;2022-11-15T01:39:27;43.28;;;24.05;;
47021;SDS011;32779;52.264;6.154;2022-11-15T01:41:53;49.85;;;24.65;;
47021;SDS011;32779;52.264;6.154;2022-11-15T01:46:59;45.72;;;25.60;;
47021;SDS011;32779;52.264;6.154;2022-11-15T01:49:28;38.88;;;24.75;;
47021;SDS011;32779;52.264;6.154;2022-11-15T01:51:57;47.38;;;25.70;;
47021;SDS011;32779;52.264;6.154;2022-11-15T01:56:52;45.95;;;24.48;;
47021;SDS011;32779;52.264;6.154;2022-11-15T01:59:21;47.15;;;24.58;;
47021;SDS011;32779;52.264;6.154;2022-11-15T02:01:47;50.05;;;24.80;;
47021;SDS011;32779;52.264;6.154;2022-11-15T02:04:15;46.17;;;24.77;;
47021;SDS011;32779;52.264;6.154;2022-11-15T02:06:43;50.83;;;26.23;;
47021;SDS011;32779;52.264;6.154;2022-11-15T02:09:10;49.13;;;25.25;;
47021;SDS011;32779;52.264;6.154;2022-11-15T02:11:37;46.95;;;25.02;;
47021;SDS011;32779;52.264;6.154;2022-11-15T02:14:03;42.80;;;24.98;;
47021;SDS011;32779;52.264;6.154;2022-11-15T02:16:41;43.90;;;25.30;;
47021;SDS011;32779;52.264;6.154;2022-11-15T02:25:00;43.60;;;25.10;;
47021;SDS011;32779;52.264;6.154;2022-11-15T02:27:38;41.17;;;24.70;;
47021;SDS011;32779;52.264;6.154;2022-11-15T02:30:23;45.30;;;25.58;;
47021;SDS011;32779;52.264;6.154;2022-11-15T02:32:57;41.80;;;24.42;;
47021;SDS011;32779;52.264;6.154;2022-11-15T02:38:43;41.42;;;25.67;;
47021;SDS011;32779;52.264;6.154;2022-11-15T02:41:20;41.10;;;24.08;;
47021;SDS011;32779;52.264;6.154;2022-11-15T02:43:54;45.38;;;25.00;;
47021;SDS011;32779;52.264;6.154;2022-11-15T02:46:30;40.42;;;25.13;;
47021;SDS011;32779;52.264;6.154;2022-11-15T02:49:19;50.30;;;27.02;;
47021;SDS011;32779;52.264;6.154;2022-11-15T02:51:46;46.58;;;27.58;;
47021;SDS011;32779;52.264;6.154;2022-11-15T02:54:15;50.80;;;28.30;;
47021;SDS011;32779;52.264;6.154;2022-11-15T02:56:53;44.70;;;26.67;;
47021;SDS011;32779;52.264;6.154;2022-11-15T03:01:56;43.85;;;26.98;;
47021;SDS011;32779;52.264;6.154;2022-11-15T03:04:57;54.08;;;26.83;;
47021;SDS011;32779;52.264;6.154;2022-11-15T03:13:33;44.65;;;27.60;;
47021;SDS011;32779;52.264;6.154;2022-11-15T03:16:09;50.72;;;28.55;;
47021;SDS011;32779;52.264;6.154;2022-11-15T03:18:52;42.05;;;27.55;;
47021;SDS011;32779;52.264;6.154;2022-11-15T03:21:28;43.22;;;27.60;;
47021;SDS011;32779;52.264;6.154;2022-11-15T03:23:56;38.88;;;26.40;;
47021;SDS011;32779;52.264;6.154;2022-11-15T03:26:25;43.45;;;26.13;;
47021;SDS011;32779;52.264;6.154;2022-11-15T03:28:56;40.13;;;25.92;;
47021;SDS011;32779;52.264;6.154;2022-11-15T03:31:29;42.13;;;24.48;;
47021;SDS011;32779;52.264;6.154;2022-11-15T03:34:13;39.15;;;25.02;;
47021;SDS011;32779;52.264;6.154;2022-11-15T03:36:44;39.83;;;26.13;;
47021;SDS011;32779;52.264;6.154;2022-11-15T03:41:39;37.78;;;25.45;;
47021;SDS011;32779;52.264;6.154;2022-11-15T03:46:47;38.97;;;24.88;;
47021;SDS011;32779;52.264;6.154;2022-11-15T03:49:36;37.78;;;25.38;;
47021;SDS011;32779;52.264;6.154;2022-11-15T03:52:07;40.55;;;24.80;;
47021;SDS011;32779;52.264;6.154;2022-11-15T03:54:35;37.55;;;24.25;;
47021;SDS011;32779;52.264;6.154;2022-11-15T03:57:01;35.95;;;25.00;;
47021;SDS011;32779;52.264;6.154;2022-11-15T03:59:27;35.20;;;22.60;;
47021;SDS011;32779;52.264;6.154;2022-11-15T04:01:53;46.15;;;24.23;;
47021;SDS011;32779;52.264;6.154;2022-11-15T04:04:18;35.30;;;24.10;;
47021;SDS011;32779;52.264;6.154;2022-11-15T04:06:44;37.72;;;23.27;;
47021;SDS011;32779;52.264;6.154;2022-11-15T04:09:09;31.75;;;23.15;;
47021;SDS011;32779;52.264;6.154;2022-11-15T04:11:35;31.08;;;23.30;;
47021;SDS011;32779;52.264;6.154;2022-11-15T04:14:00;35.72;;;23.77;;
47021;SDS011;32779;52.264;6.154;2022-11-15T04:16:26;40.28;;;23.65;;
47021;SDS011;32779;52.264;6.154;2022-11-15T04:18:51;35.67;;;23.38;;
47021;SDS011;32779;52.264;6.154;2022-11-15T04:21:37;34.33;;;23.33;;
47021;SDS011;32779;52.264;6.154;2022-11-15T04:24:22;35.42;;;22.73;;
47021;SDS011;32779;52.264;6.154;2022-11-15T04:26:48;37.25;;;24.23;;
47021;SDS011;32779;52.264;6.154;2022-11-15T04:29:13;39.25;;;22.48;;
47021;SDS011;32779;52.264;6.154;2022-11-15T04:31:57;35.25;;;22.42;;
47021;SDS011;32779;52.264;6.154;2022-11-15T04:34:23;32.17;;;21.98;;
47021;SDS011;32779;52.264;6.154;2022-11-15T04:36:49;34.55;;;22.45;;
47021;SDS011;32779;52.264;6.154;2022-11-15T04:39:33;36.22;;;22.70;;
47021;SDS011;32779;52.264;6.154;2022-11-15T04:41:58;33.47;;;22.55;;
47021;SDS011;32779;52.264;6.154;2022-11-15T04:44:24;32.63;;;23.25;;
47021;SDS011;32779;52.264;6.154;2022-11-15T04:46:49;38.33;;;23.58;;
47021;SDS011;32779;52.264;6.154;2022-11-15T04:49:15;32.10;;;22.52;;
47021;SDS011;32779;52.264;6.154;2022-11-15T04:51:40;34.55;;;22.63;;
47021;SDS011;32779;52.264;6.154;2022-11-15T04:54:06;35.63;;;22.83;;
47021;SDS011;32779;52.264;6.154;2022-11-15T04:56:31;33.40;;;22.55;;
47021;SDS011;32779;52.264;6.154;2022-11-15T04:58:57;36.83;;;22.88;;
47021;SDS011;32779;52.264;6.154;2022-11-15T05:01:22;35.80;;;23.73;;
47021;SDS011;32779;52.264;6.154;2022-11-15T05:03:48;31.95;;;24.25;;
47021;SDS011;32779;52.264;6.154;2022-11-15T05:06:32;34.83;;;23.65;;
47021;SDS011;32779;52.264;6.154;2022-11-15T05:08:58;35.78;;;24.95;;
47021;SDS011;32779;52.264;6.154;2022-11-15T05:11:23;33.78;;;22.60;;
47021;SDS011;32779;52.264;6.154;2022-11-15T05:13:49;35.40;;;24.48;;
47021;SDS011;32779;52.264;6.154;2022-11-15T05:16:15;32.53;;;23.02;;
47021;SDS011;32779;52.264;6.154;2022-11-15T05:18:41;33.58;;;22.02;;
47021;SDS011;32779;52.264;6.154;2022-11-15T05:21:10;34.30;;;22.65;;
47021;SDS011;32779;52.264;6.154;2022-11-15T05:23:40;32.47;;;21.65;;
47021;SDS011;32779;52.264;6.154;2022-11-15T05:26:06;30.95;;;21.95;;
47021;SDS011;32779;52.264;6.154;2022-11-15T05:28:35;38.78;;;22.98;;
47021;SDS011;32779;52.264;6.154;2022-11-15T05:31:05;27.45;;;21.85;;
47021;SDS011;32779;52.264;6.154;2022-11-15T05:33:33;31.98;;;21.80;;
47021;SDS011;32779;52.264;6.154;2022-11-15T05:36:02;30.65;;;22.77;;
47021;SDS011;32779;52.264;6.154;2022-11-15T05:38:32;35.47;;;24.30;;
47021;SDS011;32779;52.264;6.154;2022-11-15T05:40:59;33.90;;;23.27;;
47021;SDS011;32779;52.264;6.154;2022-11-15T05:43:26;35.40;;;23.60;;
47021;SDS011;32779;52.264;6.154;2022-11-15T05:45:53;30.33;;;22.40;;
47021;SDS011;32779;52.264;6.154;2022-11-15T05:48:18;34.47;;;23.77;;
47021;SDS011;32779;52.264;6.154;2022-11-15T05:50:45;33.53;;;22.33;;
47021;SDS011;32779;52.264;6.154;2022-11-15T05:53:12;31.08;;;22.35;;
47021;SDS011;32779;52.264;6.154;2022-11-15T05:55:42;37.60;;;22.33;;
47021;SDS011;32779;52.264;6.154;2022-11-15T05:58:08;30.33;;;22.55;;
47021;SDS011;32779;52.264;6.154;2022-11-15T06:00:34;30.80;;;20.88;;
47021;SDS011;32779;52.264;6.154;2022-11-15T06:02:59;32.22;;;22.48;;
47021;SDS011;32779;52.264;6.154;2022-11-15T06:05:25;29.23;;;22.38;;
47021;SDS011;32779;52.264;6.154;2022-11-15T06:07:50;31.02;;;20.90;;
47021;SDS011;32779;52.264;6.154;2022-11-15T06:10:16;37.33;;;22.33;;
47021;SDS011;32779;52.264;6.154;2022-11-15T06:12:42;36.70;;;23.80;;
47021;SDS011;32779;52.264;6.154;2022-11-15T06:15:08;37.83;;;22.13;;
47021;SDS011;32779;52.264;6.154;2022-11-15T06:17:33;40.22;;;22.98;;
47021;SDS011;32779;52.264;6.154;2022-11-15T06:19:59;38.58;;;23.30;;
47021;SDS011;32779;52.264;6.154;2022-11-15T06:22:24;34.75;;;22.92;;
47021;SDS011;32779;52.264;6.154;2022-11-15T06:24:50;34.90;;;22.77;;
47021;SDS011;32779;52.264;6.154;2022-11-15T06:27:15;31.15;;;22.48;;
47021;SDS011;32779;52.264;6.154;2022-11-15T06:29:41;44.42;;;24.38;;
47021;SDS011;32779;52.264;6.154;2022-11-15T06:32:06;35.65;;;23.85;;
47021;SDS011;32779;52.264;6.154;2022-11-15T06:34:32;37.67;;;23.67;;
47021;SDS011;32779;52.264;6.154;2022-11-15T06:37:02;32.97;;;22.55;;
47021;SDS011;32779;52.264;6.154;2022-11-15T06:39:27;32.53;;;22.13;;
47021;SDS011;32779;52.264;6.154;2022-11-15T06:41:53;38.83;;;23.50;;
47021;SDS011;32779;52.264;6.154;2022-11-15T06:44:18;37.20;;;22.83;;
47021;SDS011;32779;52.264;6.154;2022-11-15T06:46:44;38.20;;;23.80;;
47021;SDS011;32779;52.264;6.154;2022-11-15T06:49:09;39.42;;;24.15;;
47021;SDS011;32779;52.264;6.154;2022-11-15T06:51:35;32.70;;;22.55;;
47021;SDS011;32779;52.264;6.154;2022-11-15T06:54:00;37.25;;;24.08;;
47021;SDS011;32779;52.264;6.154;2022-11-15T06:56:26;41.40;;;24.00;;
47021;SDS011;32779;52.264;6.154;2022-11-15T06:58:51;33.88;;;22.73;;
47021;SDS011;32779;52.264;6.154;2022-11-15T07:01:17;37.65;;;23.08;;
47021;SDS011;32779;52.264;6.154;2022-11-15T07:03:43;41.20;;;23.40;;
47021;SDS011;32779;52.264;6.154;2022-11-15T07:06:08;49.35;;;25.35;;
47021;SDS011;32779;52.264;6.154;2022-11-15T07:11:02;35.40;;;22.38;;
47021;SDS011;32779;52.264;6.154;2022-11-15T07:13:29;35.10;;;22.10;;
47021;SDS011;32779;52.264;6.154;2022-11-15T07:16:02;35.72;;;23.10;;
47021;SDS011;32779;52.264;6.154;2022-11-15T07:18:33;32.85;;;22.17;;
47021;SDS011;32779;52.264;6.154;2022-11-15T07:21:03;37.65;;;23.73;;
47021;SDS011;32779;52.264;6.154;2022-11-15T07:23:30;36.08;;;22.02;;
47021;SDS011;32779;52.264;6.154;2022-11-15T07:25:57;35.15;;;23.20;;
47021;SDS011;32779;52.264;6.154;2022-11-15T07:28:23;42.55;;;23.90;;
47021;SDS011;32779;52.264;6.154;2022-11-15T07:30:49;35.10;;;23.40;;
47021;SDS011;32779;52.264;6.154;2022-11-15T07:33:15;31.17;;;22.52;;
47021;SDS011;32779;52.264;6.154;2022-11-15T07:35:41;33.05;;;22.33;;
47021;SDS011;32779;52.264;6.154;2022-11-15T07:38:07;31.77;;;20.92;;
47021;SDS011;32779;52.264;6.154;2022-11-15T07:40:33;33.47;;;22.23;;
47021;SDS011;32779;52.264;6.154;2022-11-15T07:43:00;34.10;;;23.85;;
47021;SDS011;32779;52.264;6.154;2022-11-15T07:45:26;36.90;;;24.00;;
47021;SDS011;32779;52.264;6.154;2022-11-15T07:47:52;31.33;;;22.90;;
47021;SDS011;32779;52.264;6.154;2022-11-15T07:50:18;32.45;;;23.70;;
47021;SDS011;32779;52.264;6.154;2022-11-15T07:52:44;35.97;;;24.33;;
47021;SDS011;32779;52.264;6.154;2022-11-15T07:55:10;37.88;;;23.15;;
47021;SDS011;32779;52.264;6.154;2022-11-15T07:57:36;33.03;;;22.77;;
47021;SDS011;32779;52.264;6.154;2022-11-15T08:00:02;32.50;;;22.67;;
47021;SDS011;32779;52.264;6.154;2022-11-15T08:02:29;32.45;;;22.63;;
47021;SDS011;32779;52.264;6.154;2022-11-15T08:04:55;32.13;;;24.02;;
47021;SDS011;32779;52.264;6.154;2022-11-15T08:07:20;32.75;;;22.35;;
47021;SDS011;32779;52.264;6.154;2022-11-15T08:09:46;32.08;;;22.35;;
47021;SDS011;32779;52.264;6.154;2022-11-15T08:12:11;29.40;;;21.20;;
47021;SDS011;32779;52.264;6.154;2022-11-15T08:14:37;32.60;;;22.98;;
47021;SDS011;32779;52.264;6.154;2022-11-15T08:19:28;29.40;;;20.98;;
47021;SDS011;32779;52.264;6.154;2022-11-15T08:21:54;26.27;;;20.42;;
47021;SDS011;32779;52.264;6.154;2022-11-15T08:24:19;27.40;;;21.08;;
47021;SDS011;32779;52.264;6.154;2022-11-15T08:26:45;27.55;;;21.05;;
47021;SDS011;32779;52.264;6.154;2022-11-15T08:29:11;33.33;;;21.85;;
47021;SDS011;32779;52.264;6.154;2022-11-15T08:31:36;26.23;;;20.20;;
47021;SDS011;32779;52.264;6.154;2022-11-15T08:34:03;30.35;;;21.15;;
47021;SDS011;32779;52.264;6.154;2022-11-15T08:36:29;25.42;;;20.33;;
47021;SDS011;32779;52.264;6.154;2022-11-15T08:38:55;27.77;;;19.17;;
47021;SDS011;32779;52.264;6.154;2022-11-15T08:41:28;27.10;;;19.80;;
47021;SDS011;32779;52.264;6.154;2022-11-15T08:43:56;27.00;;;19.92;;
47021;SDS011;32779;52.264;6.154;2022-11-15T08:46:21;23.65;;;18.88;;
47021;SDS011;32779;52.264;6.154;2022-11-15T08:48:47;25.27;;;19.75;;
47021;SDS011;32779;52.264;6.154;2022-11-15T08:51:13;24.58;;;18.90;;
47021;SDS011;32779;52.264;6.154;2022-11-15T08:53:39;24.45;;;18.63;;
47021;SDS011;32779;52.264;6.154;2022-11-15T08:56:08;21.80;;;18.20;;
47021;SDS011;32779;52.264;6.154;2022-11-15T08:58:35;24.65;;;18.52;;
47021;SDS011;32779;52.264;6.154;2022-11-15T09:01:01;22.80;;;16.77;;
47021;SDS011;32779;52.264;6.154;2022-11-15T09:03:27;21.50;;;18.20;;
47021;SDS011;32779;52.264;6.154;2022-11-15T09:05:57;23.23;;;16.27;;
47021;SDS011;32779;52.264;6.154;2022-11-15T09:08:24;19.90;;;16.80;;
47021;SDS011;32779;52.264;6.154;2022-11-15T09:11:02;22.10;;;16.60;;
47021;SDS011;32779;52.264;6.154;2022-11-15T09:13:28;20.13;;;16.65;;
47021;SDS011;32779;52.264;6.154;2022-11-15T09:15:57;21.50;;;16.77;;
47021;SDS011;32779;52.264;6.154;2022-11-15T09:18:23;22.85;;;16.77;;
47021;SDS011;32779;52.264;6.154;2022-11-15T09:20:49;21.10;;;16.20;;
47021;SDS011;32779;52.264;6.154;2022-11-15T09:23:14;21.58;;;16.92;;
47021;SDS011;32779;52.264;6.154;2022-11-15T09:25:40;24.73;;;18.05;;
47021;SDS011;32779;52.264;6.154;2022-11-15T09:28:06;36.67;;;23.88;;
47021;SDS011;32779;52.264;6.154;2022-11-15T09:30:33;22.75;;;18.50;;
47021;SDS011;32779;52.264;6.154;2022-11-15T09:32:58;24.80;;;17.27;;
47021;SDS011;32779;52.264;6.154;2022-11-15T09:35:31;24.65;;;17.20;;
47021;SDS011;32779;52.264;6.154;2022-11-15T09:37:57;24.45;;;17.30;;
47021;SDS011;32779;52.264;6.154;2022-11-15T09:40:23;25.92;;;16.52;;
47021;SDS011;32779;52.264;6.154;2022-11-15T09:42:57;22.77;;;17.27;;
47021;SDS011;32779;52.264;6.154;2022-11-15T09:45:37;22.17;;;16.50;;
47021;SDS011;32779;52.264;6.154;2022-11-15T09:50:51;23.80;;;16.30;;
47021;SDS011;32779;52.264;6.154;2022-11-15T09:56:01;25.75;;;17.65;;
47021;SDS011;32779;52.264;6.154;2022-11-15T10:02:00;25.27;;;14.40;;
47021;SDS011;32779;52.264;6.154;2022-11-15T10:04:48;15.45;;;12.65;;
47021;SDS011;32779;52.264;6.154;2022-11-15T10:07:19;16.80;;;11.18;;
47021;SDS011;32779;52.264;6.154;2022-11-15T10:10:22;17.55;;;11.18;;
47021;SDS011;32779;52.264;6.154;2022-11-15T10:13:04;16.17;;;10.77;;
47021;SDS011;32779;52.264;6.154;2022-11-15T10:15:33;12.88;;;9.90;;
47021;SDS011;32779;52.264;6.154;2022-11-15T10:18:14;33.45;;;20.65;;
47021;SDS011;32779;52.264;6.154;2022-11-15T10:20:47;15.70;;;9.65;;
47021;SDS011;32779;52.264;6.154;2022-11-15T10:23:16;18.63;;;9.98;;
47021;SDS011;32779;52.264;6.154;2022-11-15T10:25:46;15.05;;;8.98;;
47021;SDS011;32779;52.264;6.154;2022-11-15T10:28:21;16.55;;;8.40;;
47021;SDS011;32779;52.264;6.154;2022-11-15T10:30:52;13.85;;;7.90;;
47021;SDS011;32779;52.264;6.154;2022-11-15T10:33:25;13.23;;;8.15;;
47021;SDS011;32779;52.264;6.154;2022-11-15T10:36:14;13.73;;;8.38;;
47021;SDS011;32779;52.264;6.154;2022-11-15T10:46:46;8.45;;;7.15;;
47021;SDS011;32779;52.264;6.154;2022-11-15T10:49:32;15.40;;;7.90;;
47021;SDS011;32779;52.264;6.154;2022-11-15T10:57:16;15.13;;;7.50;;
47021;SDS011;32779;52.264;6.154;2022-11-15T10:59:48;12.77;;;6.90;;
47021;SDS011;32779;52.264;6.154;2022-11-15T11:02:38;10.43;;;6.78;;
47021;SDS011;32779;52.264;6.154;2022-11-15T11:05:25;7.32;;;6.13;;
47021;SDS011;32779;52.264;6.154;2022-11-15T11:07:59;10.68;;;6.47;;
47021;SDS011;32779;52.264;6.154;2022-11-15T11:10:30;10.00;;;6.38;;
47021;SDS011;32779;52.264;6.154;2022-11-15T11:13:08;11.20;;;6.15;;
47021;SDS011;32779;52.264;6.154;2022-11-15T11:15:46;7.45;;;4.75;;
47021;SDS011;32779;52.264;6.154;2022-11-15T11:18:25;8.52;;;4.68;;
47021;SDS011;32779;52.264;6.154;2022-11-15T11:21:04;8.88;;;4.82;;
47021;SDS011;32779;52.264;6.154;2022-11-15T11:31:58;7.40;;;3.92;;
47021;SDS011;32779;52.264;6.154;2022-11-15T11:34:56;5.35;;;3.50;;
47021;SDS011;32779;52.264;6.154;2022-11-15T11:45:48;7.25;;;3.42;;
47021;SDS011;32779;52.264;6.154;2022-11-15T11:48:39;6.97;;;3.10;;
47021;SDS011;32779;52.264;6.154;2022-11-15T11:56:47;5.57;;;2.65;;
47021;SDS011;32779;52.264;6.154;2022-11-15T12:02:11;6.53;;;2.58;;
47021;SDS011;32779;52.264;6.154;2022-11-15T12:04:55;5.18;;;2.33;;
47021;SDS011;32779;52.264;6.154;2022-11-15T12:07:29;5.45;;;1.90;;
47021;SDS011;32779;52.264;6.154;2022-11-15T12:09:59;5.03;;;2.22;;
47021;SDS011;32779;52.264;6.154;2022-11-15T12:12:39;5.05;;;1.90;;
47021;SDS011;32779;52.264;6.154;2022-11-15T12:15:33;3.50;;;1.90;;
47021;SDS011;32779;52.264;6.154;2022-11-15T12:18:04;6.50;;;1.98;;
47021;SDS011;32779;52.264;6.154;2022-11-15T12:20:33;2.83;;;2.33;;
47021;SDS011;32779;52.264;6.154;2022-11-15T12:23:12;7.25;;;2.10;;
47021;SDS011;32779;52.264;6.154;2022-11-15T12:31:04;2.78;;;1.90;;
47021;SDS011;32779;52.264;6.154;2022-11-15T12:33:44;2.78;;;1.88;;
47021;SDS011;32779;52.264;6.154;2022-11-15T12:36:29;6.50;;;1.90;;
47021;SDS011;32779;52.264;6.154;2022-11-15T12:39:06;6.15;;;2.33;;
47021;SDS011;32779;52.264;6.154;2022-11-15T12:41:37;5.07;;;2.28;;
47021;SDS011;32779;52.264;6.154;2022-11-15T12:44:05;6.80;;;1.75;;
47021;SDS011;32779;52.264;6.154;2022-11-15T12:54:49;5.43;;;0.95;;
47021;SDS011;32779;52.264;6.154;2022-11-15T12:59:59;2.78;;;1.65;;
47021;SDS011;32779;52.264;6.154;2022-11-15T13:02:43;2.67;;;1.10;;
47021;SDS011;32779;52.264;6.154;2022-11-15T13:17:39;3.20;;;2.03;;
47021;SDS011;32779;52.264;6.154;2022-11-15T13:22:47;5.47;;;1.13;;
47021;SDS011;32779;52.264;6.154;2022-11-15T13:31:47;5.78;;;1.13;;
47021;SDS011;32779;52.264;6.154;2022-11-15T13:33:51;9.48;;;1.65;;
47021;SDS011;32779;52.264;6.154;2022-11-15T13:36:25;4.13;;;1.45;;
47021;SDS011;32779;52.264;6.154;2022-11-15T13:39:05;3.95;;;1.30;;
47021;SDS011;32779;52.264;6.154;2022-11-15T13:41:45;6.70;;;1.30;;
47021;SDS011;32779;52.264;6.154;2022-11-15T13:44:22;6.28;;;1.27;;
47021;SDS011;32779;52.264;6.154;2022-11-15T13:47:00;2.55;;;1.35;;
47021;SDS011;32779;52.264;6.154;2022-11-15T13:49:38;4.28;;;1.52;;
47021;SDS011;32779;52.264;6.154;2022-11-15T13:52:05;3.35;;;1.13;;
47021;SDS011;32779;52.264;6.154;2022-11-15T13:57:23;4.10;;;1.20;;
47021;SDS011;32779;52.264;6.154;2022-11-15T13:59:56;6.20;;;1.80;;
47021;SDS011;32779;52.264;6.154;2022-11-15T14:02:25;5.38;;;1.70;;
47021;SDS011;32779;52.264;6.154;2022-11-15T14:04:57;4.40;;;2.20;;
47021;SDS011;32779;52.264;6.154;2022-11-15T14:07:53;9.85;;;3.30;;
47021;SDS011;32779;52.264;6.154;2022-11-15T14:10:31;6.07;;;2.35;;
47021;SDS011;32779;52.264;6.154;2022-11-15T14:13:03;9.00;;;2.20;;
47021;SDS011;32779;52.264;6.154;2022-11-15T14:15:36;5.78;;;2.20;;
47021;SDS011;32779;52.264;6.154;2022-11-15T14:18:03;3.45;;;1.63;;
47021;SDS011;32779;52.264;6.154;2022-11-15T14:20:33;5.32;;;1.95;;
47021;SDS011;32779;52.264;6.154;2022-11-15T14:23:02;7.32;;;1.92;;
47021;SDS011;32779;52.264;6.154;2022-11-15T14:25:52;5.97;;;2.33;;
47021;SDS011;32779;52.264;6.154;2022-11-15T14:30:48;8.38;;;2.42;;
47021;SDS011;32779;52.264;6.154;2022-11-15T14:33:28;6.88;;;2.40;;
47021;SDS011;32779;52.264;6.154;2022-11-15T14:36:02;8.88;;;2.10;;
47021;SDS011;32779;52.264;6.154;2022-11-15T14:38:41;5.43;;;1.90;;
47021;SDS011;32779;52.264;6.154;2022-11-15T14:43:42;4.32;;;2.05;;
47021;SDS011;32779;52.264;6.154;2022-11-15T14:46:08;5.10;;;2.33;;
47021;SDS011;32779;52.264;6.154;2022-11-15T14:48:33;5.68;;;2.63;;
47021;SDS011;32779;52.264;6.154;2022-11-15T14:50:59;3.63;;;2.40;;
47021;SDS011;32779;52.264;6.154;2022-11-15T14:53:25;4.63;;;2.25;;
47021;SDS011;32779;52.264;6.154;2022-11-15T14:55:50;4.30;;;2.15;;
47021;SDS011;32779;52.264;6.154;2022-11-15T14:58:16;5.38;;;2.28;;
47021;SDS011;32779;52.264;6.154;2022-11-15T15:00:41;15.10;;;5.22;;
47021;SDS011;32779;52.264;6.154;2022-11-15T15:03:08;5.25;;;2.42;;
47021;SDS011;32779;52.264;6.154;2022-11-15T15:05:35;6.68;;;2.50;;
47021;SDS011;32779;52.264;6.154;2022-11-15T15:08:02;3.88;;;2.20;;
47021;SDS011;32779;52.264;6.154;2022-11-15T15:12:58;6.50;;;2.35;;
47021;SDS011;32779;52.264;6.154;2022-11-15T15:15:26;6.82;;;2.28;;
47021;SDS011;32779;52.264;6.154;2022-11-15T15:17:56;4.95;;;2.10;;
47021;SDS011;32779;52.264;6.154;2022-11-15T15:20:22;8.32;;;2.88;;
47021;SDS011;32779;52.264;6.154;2022-11-15T15:22:48;5.30;;;2.05;;
47021;SDS011;32779;52.264;6.154;2022-11-15T15:25:27;4.55;;;2.33;;
47021;SDS011;32779;52.264;6.154;2022-11-15T15:27:55;4.72;;;2.30;;
47021;SDS011;32779;52.264;6.154;2022-11-15T15:30:26;4.22;;;2.20;;
47021;SDS011;32779;52.264;6.154;2022-11-15T15:32:55;4.53;;;2.00;;
47021;SDS011;32779;52.264;6.154;2022-11-15T15:35:21;7.35;;;1.98;;
47021;SDS011;32779;52.264;6.154;2022-11-15T15:37:47;4.07;;;1.77;;
47021;SDS011;32779;52.264;6.154;2022-11-15T15:40:18;4.10;;;2.00;;
47021;SDS011;32779;52.264;6.154;2022-11-15T15:42:46;8.25;;;3.53;;
47021;SDS011;32779;52.264;6.154;2022-11-15T15:45:12;10.32;;;4.60;;
47021;SDS011;32779;52.264;6.154;2022-11-15T15:47:38;13.38;;;6.35;;
47021;SDS011;32779;52.264;6.154;2022-11-15T15:50:19;12.07;;;5.80;;
47021;SDS011;32779;52.264;6.154;2022-11-15T15:52:49;7.90;;;4.28;;
47021;SDS011;32779;52.264;6.154;2022-11-15T15:55:16;7.93;;;2.00;;
47021;SDS011;32779;52.264;6.154;2022-11-15T15:57:41;7.80;;;2.50;;
47021;SDS011;32779;52.264;6.154;2022-11-15T16:00:08;7.07;;;2.30;;
47021;SDS011;32779;52.264;6.154;2022-11-15T16:02:34;6.85;;;2.05;;
47021;SDS011;32779;52.264;6.154;2022-11-15T16:05:00;5.20;;;2.13;;
47021;SDS011;32779;52.264;6.154;2022-11-15T16:07:26;5.78;;;2.45;;
47021;SDS011;32779;52.264;6.154;2022-11-15T16:09:53;3.45;;;1.77;;
47021;SDS011;32779;52.264;6.154;2022-11-15T16:12:25;4.85;;;1.67;;
47021;SDS011;32779;52.264;6.154;2022-11-15T16:15:00;6.55;;;2.45;;
47021;SDS011;32779;52.264;6.154;2022-11-15T16:17:30;5.43;;;1.85;;
47021;SDS011;32779;52.264;6.154;2022-11-15T16:19:58;6.10;;;2.88;;
47021;SDS011;32779;52.264;6.154;2022-11-15T16:22:24;3.55;;;1.58;;
47021;SDS011;32779;52.264;6.154;2022-11-15T16:24:50;4.30;;;1.95;;
47021;SDS011;32779;52.264;6.154;2022-11-15T16:27:16;5.28;;;1.80;;
47021;SDS011;32779;52.264;6.154;2022-11-15T16:29:43;4.05;;;1.63;;
47021;SDS011;32779;52.264;6.154;2022-11-15T16:32:09;5.18;;;1.58;;
47021;SDS011;32779;52.264;6.154;2022-11-15T16:34:35;4.88;;;1.90;;
47021;SDS011;32779;52.264;6.154;2022-11-15T16:37:01;4.68;;;1.83;;
47021;SDS011;32779;52.264;6.154;2022-11-15T16:39:27;4.13;;;1.65;;
47021;SDS011;32779;52.264;6.154;2022-11-15T16:41:56;2.80;;;1.10;;
47021;SDS011;32779;52.264;6.154;2022-11-15T16:44:22;4.95;;;1.38;;
47021;SDS011;32779;52.264;6.154;2022-11-15T16:49:16;3.97;;;1.30;;
47021;SDS011;32779;52.264;6.154;2022-11-15T16:51:44;4.43;;;1.50;;
47021;SDS011;32779;52.264;6.154;2022-11-15T16:54:11;3.47;;;1.42;;
47021;SDS011;32779;52.264;6.154;2022-11-15T16:59:03;4.80;;;1.42;;